createdAt,value
2023-11-01T00:02:27.787Z,9.25
2023-11-01T00:04:55.823Z,11.13
2023-11-01T00:07:23.734Z,7.65
2023-11-01T00:09:52.994Z,8.32
2023-11-01T00:12:20.950Z,4.40
2023-11-01T00:14:48.840Z,6.53
2023-11-01T00:17:16.779Z,4.72
2023-11-01T00:19:44.752Z,5.60
2023-11-01T00:22:13.230Z,5.13
2023-11-01T00:24:44.494Z,4.97
2023-11-01T00:27:14.058Z,5.63
2023-11-01T00:29:42.043Z,6.50
2023-11-01T00:32:09.976Z,3.55
2023-11-01T00:34:37.926Z,5.03
2023-11-01T00:37:06.149Z,6.13
2023-11-01T00:39:34.047Z,6.75
2023-11-01T00:42:02.464Z,4.15
2023-11-01T00:44:31.812Z,5.30
2023-11-01T00:46:59.851Z,3.75
2023-11-01T00:49:27.870Z,4.38
2023-11-01T00:51:55.756Z,3.75
2023-11-01T00:54:23.704Z,7.88
2023-11-01T00:56:51.651Z,5.88
2023-11-01T00:59:19.612Z,4.07
2023-11-01T01:01:48.909Z,4.93
2023-11-01T01:04:16.897Z,3.08
2023-11-01T01:06:44.972Z,3.72
2023-11-01T01:09:13.742Z,4.93
2023-11-01T01:11:41.872Z,3.92
2023-11-01T01:14:09.836Z,2.28
2023-11-01T01:16:37.927Z,5.40
2023-11-01T01:19:07.265Z,4.80
2023-11-01T01:21:35.180Z,2.83
2023-11-01T01:24:04.139Z,4.45
2023-11-01T01:26:32.929Z,3.85
2023-11-01T01:29:00.876Z,5.55
2023-11-01T01:31:28.801Z,6.68
2023-11-01T01:33:56.758Z,4.05
2023-11-01T01:36:26.119Z,4.32
2023-11-01T01:38:54.439Z,5.97
2023-11-01T01:41:22.404Z,9.13
2023-11-01T01:43:50.453Z,9.05
2023-11-01T01:46:18.732Z,9.02
2023-11-01T01:48:47.972Z,10.63
2023-11-01T01:51:16.294Z,7.65
2023-11-01T01:53:47.223Z,14.07
2023-11-01T01:56:15.740Z,9.50
2023-11-01T01:58:45.878Z,8.02
2023-11-01T02:01:14.231Z,10.55
2023-11-01T02:03:42.340Z,8.95
2023-11-01T02:06:10.513Z,10.80
2023-11-01T02:08:38.510Z,7.55
2023-11-01T02:11:07.895Z,9.95
2023-11-01T02:13:35.745Z,11.38
2023-11-01T02:16:03.712Z,10.05
2023-11-01T02:18:31.820Z,8.73
2023-11-01T02:21:00.136Z,9.50
2023-11-01T02:23:35.159Z,12.63
2023-11-01T02:26:04.014Z,6.95
2023-11-01T02:28:32.290Z,10.20
2023-11-01T02:31:00.259Z,11.70
2023-11-01T02:33:28.184Z,8.65
2023-11-01T02:35:56.092Z,7.70
2023-11-01T02:38:24.056Z,14.02
2023-11-01T02:40:53.412Z,10.20
2023-11-01T02:43:21.338Z,8.48
2023-11-01T02:45:49.222Z,4.25
2023-11-01T02:48:17.156Z,11.95
2023-11-01T02:50:45.906Z,8.38
2023-11-01T02:53:13.848Z,4.80
2023-11-01T02:55:42.156Z,4.80
2023-11-01T02:58:11.482Z,11.15
2023-11-01T03:00:39.648Z,7.32
2023-11-01T03:03:07.612Z,10.68
2023-11-01T03:05:35.607Z,7.47
2023-11-01T03:08:03.562Z,7.43
2023-11-01T03:10:31.999Z,8.63
2023-11-01T03:12:59.989Z,6.75
2023-11-01T03:15:29.496Z,9.63
2023-11-01T03:17:58.292Z,8.85
2023-11-01T03:20:26.280Z,8.02
2023-11-01T03:22:54.304Z,8.95
2023-11-01T03:25:22.243Z,6.47
2023-11-01T03:27:50.156Z,8.68
2023-11-01T03:30:18.673Z,4.25
2023-11-01T03:32:48.014Z,6.60
2023-11-01T03:35:15.971Z,7.95
2023-11-01T03:37:43.911Z,6.72
2023-11-01T03:40:11.932Z,6.43
2023-11-01T03:42:40.188Z,13.60
2023-11-01T03:45:09.113Z,7.68
2023-11-01T03:47:37.108Z,9.52
2023-11-01T03:50:08.530Z,12.80
2023-11-01T03:52:37.550Z,12.00
2023-11-01T03:55:08.129Z,10.98
2023-11-01T03:57:36.080Z,9.90
2023-11-01T04:00:04.609Z,8.25
2023-11-01T04:02:32.620Z,12.27
2023-11-01T04:05:00.676Z,11.68
2023-11-01T04:07:29.951Z,8.30
2023-11-01T04:09:58.437Z,14.32
2023-11-01T04:12:27.153Z,9.85
2023-11-01T04:14:55.140Z,8.45
2023-11-01T04:17:23.258Z,10.43
2023-11-01T04:19:51.221Z,8.77
2023-11-01T04:22:19.174Z,6.78
2023-11-01T04:24:48.436Z,6.28
2023-11-01T04:27:16.789Z,6.82
2023-11-01T04:29:44.780Z,9.45
2023-11-01T04:32:12.726Z,9.27
2023-11-01T04:34:40.638Z,10.10
2023-11-01T04:37:08.814Z,7.97
2023-11-01T04:39:37.610Z,7.95
2023-11-01T04:42:07.163Z,8.55
2023-11-01T04:44:35.060Z,10.13
2023-11-01T04:47:03.070Z,8.82
2023-11-01T04:49:31.385Z,8.48
2023-11-01T04:51:59.291Z,7.55
2023-11-01T04:54:27.252Z,4.45
2023-11-01T04:56:55.128Z,9.32
2023-11-01T04:59:25.053Z,9.10
2023-11-01T05:01:53.091Z,9.02
2023-11-01T05:04:21.106Z,11.50
2023-11-01T05:06:49.282Z,9.25
2023-11-01T05:09:17.189Z,10.02
2023-11-01T05:11:45.684Z,10.65
2023-11-01T05:14:14.359Z,6.68
2023-11-01T05:16:43.933Z,9.13
2023-11-01T05:19:11.872Z,10.90
2023-11-01T05:21:43.245Z,8.90
2023-11-01T05:24:11.326Z,10.10
2023-11-01T05:26:39.287Z,9.85
2023-11-01T05:29:08.094Z,7.43
2023-11-01T05:31:36.011Z,6.60
2023-11-01T05:34:07.035Z,8.80
2023-11-01T05:36:34.977Z,6.80
2023-11-01T05:39:06.540Z,10.68
2023-11-01T05:41:35.146Z,9.57
2023-11-01T05:44:03.125Z,8.57
2023-11-01T05:46:31.050Z,8.32
2023-11-01T05:48:58.966Z,8.20
2023-11-01T05:51:28.404Z,10.25
2023-11-01T05:53:56.463Z,6.18
2023-11-01T05:56:28.116Z,9.55
2023-11-01T05:58:57.089Z,5.40
2023-11-01T06:01:25.511Z,6.78
2023-11-01T06:03:57.761Z,8.73
2023-11-01T06:06:26.066Z,8.23
2023-11-01T06:08:57.808Z,8.13
2023-11-01T06:11:26.353Z,9.50
2023-11-01T06:13:54.285Z,7.53
2023-11-01T06:16:22.355Z,8.23
2023-11-01T06:18:50.282Z,13.93
2023-11-01T06:21:18.306Z,7.28
2023-11-01T06:23:46.291Z,7.75
2023-11-01T06:26:17.751Z,5.95
2023-11-01T06:28:45.915Z,7.97
2023-11-01T06:31:15.354Z,9.20
2023-11-01T06:33:43.368Z,9.55
2023-11-01T06:36:11.900Z,7.13
2023-11-01T06:38:39.820Z,9.55
2023-11-01T06:41:08.048Z,10.52
2023-11-01T06:43:37.396Z,8.70
2023-11-01T06:46:05.836Z,7.05
2023-11-01T06:48:34.203Z,8.63
2023-11-01T06:51:02.222Z,8.27
2023-11-01T06:53:30.161Z,9.35
2023-11-01T06:55:58.053Z,7.60
2023-11-01T06:58:25.973Z,7.53
2023-11-01T07:00:55.729Z,4.60
2023-11-01T07:03:23.791Z,8.77
2023-11-01T07:05:52.069Z,6.72
2023-11-01T07:08:20.058Z,8.00
2023-11-01T07:10:48.011Z,10.20
2023-11-01T07:13:15.893Z,4.18
2023-11-01T07:15:43.977Z,9.27
2023-11-01T07:18:13.351Z,11.15
2023-11-01T07:20:41.785Z,5.68
2023-11-01T07:23:09.732Z,7.60
2023-11-01T07:25:37.708Z,7.75
2023-11-01T07:28:05.888Z,5.25
2023-11-01T07:30:33.874Z,8.25
2023-11-01T07:33:01.862Z,8.02
2023-11-01T07:35:31.196Z,8.60
2023-11-01T07:37:59.243Z,5.82
2023-11-01T07:40:27.173Z,5.97
2023-11-01T07:42:55.032Z,8.85
2023-11-01T07:45:22.957Z,5.82
2023-11-01T07:47:50.936Z,6.60
2023-11-01T07:50:19.066Z,10.18
2023-11-01T07:52:48.303Z,5.97
2023-11-01T07:55:16.200Z,7.10
2023-11-01T07:57:44.073Z,4.15
2023-11-01T08:00:13.721Z,9.23
2023-11-01T08:02:41.715Z,5.03
2023-11-01T08:05:10.110Z,11.73
2023-11-01T08:07:38.820Z,4.50
2023-11-01T08:10:09.345Z,6.57
2023-11-01T08:12:37.324Z,4.10
2023-11-01T08:15:06.125Z,6.53
2023-11-01T08:17:34.305Z,7.07
2023-11-01T08:20:02.981Z,4.95
2023-11-01T08:22:31.122Z,3.53
2023-11-01T08:24:59.026Z,7.45
2023-11-01T08:27:28.291Z,5.57
2023-11-01T08:29:56.267Z,7.40
2023-11-01T08:32:24.202Z,4.05
2023-11-01T08:34:52.285Z,7.80
2023-11-01T08:37:20.231Z,10.30
2023-11-01T08:39:48.153Z,10.23
2023-11-01T08:42:16.042Z,5.38
2023-11-01T08:44:45.326Z,5.10
2023-11-01T08:47:36.628Z,2.40
2023-11-01T08:50:05.374Z,6.10
2023-11-01T08:52:33.623Z,7.47
2023-11-01T08:55:02.215Z,4.55
2023-11-01T08:57:30.769Z,3.55
2023-11-01T09:00:00.291Z,5.32
2023-11-01T09:02:28.899Z,4.60
2023-11-01T09:04:57.259Z,7.10
2023-11-01T09:07:25.438Z,4.80
2023-11-01T09:09:56.502Z,6.75
2023-11-01T09:12:25.775Z,7.28
2023-11-01T09:14:53.897Z,6.28
2023-11-01T09:17:23.264Z,3.92
2023-11-01T09:19:51.219Z,8.25
2023-11-01T09:22:19.182Z,2.38
2023-11-01T09:24:47.220Z,5.00
2023-11-01T09:27:15.131Z,6.38
2023-11-01T09:29:43.096Z,4.10
2023-11-01T09:32:11.039Z,5.13
2023-11-01T09:34:40.534Z,4.20
2023-11-01T09:37:08.840Z,3.92
2023-11-01T09:39:36.760Z,4.82
2023-11-01T09:42:09.200Z,5.50
2023-11-01T09:44:37.834Z,5.97
2023-11-01T09:47:06.164Z,8.60
2023-11-01T09:49:34.089Z,5.32
2023-11-01T09:52:05.527Z,5.65
2023-11-01T09:54:33.467Z,7.57
2023-11-01T09:57:02.715Z,6.28
2023-11-01T09:59:31.178Z,3.53
2023-11-01T10:01:59.141Z,3.15
2023-11-01T10:04:27.397Z,4.65
2023-11-01T10:06:55.292Z,6.55
2023-11-01T10:09:24.554Z,3.38
2023-11-01T10:11:52.559Z,9.10
2023-11-01T10:14:28.247Z,6.38
2023-11-01T10:16:57.720Z,4.00
2023-11-01T10:19:25.760Z,7.93
2023-11-01T10:21:54.083Z,4.57
2023-11-01T10:24:26.501Z,6.50
2023-11-01T10:26:55.759Z,7.28
2023-11-01T10:29:23.961Z,4.97
2023-11-01T10:31:55.078Z,4.22
2023-11-01T10:34:29.223Z,3.42
2023-11-01T10:36:58.474Z,2.15
2023-11-01T10:39:29.218Z,2.25
2023-11-01T10:41:57.693Z,4.93
2023-11-01T10:44:27.327Z,6.68
2023-11-01T10:46:55.662Z,2.58
2023-11-01T10:49:23.677Z,3.70
2023-11-01T10:51:51.813Z,3.30
2023-11-01T10:54:19.969Z,3.58
2023-11-01T10:56:49.670Z,6.82
2023-11-01T10:59:24.958Z,3.95
2023-11-01T11:01:58.211Z,3.17
2023-11-01T11:04:30.617Z,4.65
2023-11-01T11:07:10.285Z,3.30
2023-11-01T11:09:40.559Z,4.38
2023-11-01T11:12:17.047Z,3.10
2023-11-01T11:14:45.875Z,6.00
2023-11-01T11:17:17.909Z,3.17
2023-11-01T11:20:11.719Z,4.40
2023-11-01T11:23:11.457Z,3.92
2023-11-01T11:25:51.449Z,3.17
2023-11-01T11:28:45.114Z,5.63
2023-11-01T11:31:17.147Z,3.85
2023-11-01T11:34:12.388Z,3.03
2023-11-01T11:36:40.454Z,3.83
2023-11-01T11:39:11.523Z,4.10
2023-11-01T11:41:47.632Z,4.90
2023-11-01T11:44:20.599Z,4.88
2023-11-01T11:46:49.667Z,3.30
2023-11-01T11:49:25.074Z,2.85
2023-11-01T11:51:54.318Z,5.63
2023-11-01T11:54:26.411Z,4.32
2023-11-01T11:56:55.068Z,6.88
2023-11-01T11:59:25.838Z,4.07
2023-11-01T12:01:55.398Z,3.78
2023-11-01T12:04:23.803Z,3.10
2023-11-01T12:06:53.386Z,4.22
2023-11-01T12:09:22.203Z,8.07
2023-11-01T12:11:51.782Z,4.28
2023-11-01T12:14:25.183Z,4.90
2023-11-01T12:16:54.903Z,3.25
2023-11-01T12:19:23.867Z,3.90
2023-11-01T12:21:52.868Z,5.40
2023-11-01T12:24:22.492Z,2.03
2023-11-01T12:27:07.581Z,6.28
2023-11-01T12:29:38.763Z,2.85
2023-11-01T12:32:08.239Z,3.53
2023-11-01T12:34:37.321Z,2.00
2023-11-01T12:37:06.718Z,5.80
2023-11-01T12:39:36.186Z,6.00
2023-11-01T12:42:26.645Z,1.92
2023-11-01T12:44:56.706Z,3.90
2023-11-01T12:47:25.787Z,4.20
2023-11-01T12:49:55.120Z,6.40
2023-11-01T12:52:23.106Z,3.55
2023-11-01T12:54:51.014Z,3.00
2023-11-01T12:57:19.199Z,4.13
2023-11-01T12:59:47.776Z,5.22
2023-11-01T13:02:17.145Z,3.92
2023-11-01T13:04:45.095Z,3.20
2023-11-01T13:07:13.096Z,2.05
2023-11-01T13:09:42.884Z,4.03
2023-11-01T13:12:11.012Z,7.07
2023-11-01T13:14:39.718Z,5.18
2023-11-01T13:17:08.075Z,1.95
2023-11-01T13:19:37.357Z,5.50
2023-11-01T13:22:05.523Z,2.88
2023-11-01T13:24:33.435Z,3.67
2023-11-01T13:27:07.299Z,3.72
2023-11-01T13:29:35.355Z,2.72
2023-11-01T13:32:03.403Z,4.32
2023-11-01T13:34:31.358Z,3.15
2023-11-01T13:37:01.666Z,3.58
2023-11-01T13:39:29.553Z,5.00
2023-11-01T13:41:57.532Z,5.95
2023-11-01T13:44:25.876Z,2.92
2023-11-01T13:46:53.954Z,3.42
2023-11-01T13:49:21.857Z,4.82
2023-11-01T13:51:50.887Z,2.55
2023-11-01T13:54:20.171Z,3.00
2023-11-01T13:56:48.185Z,2.70
2023-11-01T13:59:16.110Z,2.42
2023-11-01T14:01:44.202Z,2.58
2023-11-01T14:04:12.386Z,5.20
2023-11-01T14:06:40.915Z,3.28
2023-11-01T14:09:12.493Z,3.35
2023-11-01T14:11:42.161Z,5.07
2023-11-01T14:14:10.638Z,3.42
2023-11-01T14:16:39.166Z,4.70
2023-11-01T14:19:09.647Z,1.88
2023-11-01T14:21:38.013Z,2.58
2023-11-01T14:24:07.605Z,1.38
2023-11-01T14:26:35.751Z,2.63
2023-11-01T14:29:05.170Z,2.50
2023-11-01T14:31:33.104Z,2.30
2023-11-01T14:34:01.302Z,4.63
2023-11-01T14:36:29.371Z,1.85
2023-11-01T14:38:57.324Z,2.65
2023-11-01T14:41:25.301Z,1.85
2023-11-01T14:43:53.227Z,3.70
2023-11-01T14:46:23.308Z,1.88
2023-11-01T14:48:51.264Z,1.33
2023-11-01T14:51:19.330Z,1.58
2023-11-01T14:53:46.339Z,3.85
2023-11-01T14:56:17.890Z,2.20
2023-11-01T14:58:48.467Z,3.50
2023-11-01T15:01:16.993Z,2.50
2023-11-01T15:03:46.998Z,2.10
2023-11-01T15:06:15.236Z,2.88
2023-11-01T15:08:43.204Z,1.80
2023-11-01T15:11:12.662Z,2.70
2023-11-01T15:13:40.630Z,1.75
2023-11-01T15:16:09.250Z,2.58
2023-11-01T15:18:37.469Z,1.70
2023-11-01T15:21:08.682Z,2.08
2023-11-01T15:23:38.814Z,3.00
2023-11-01T15:26:06.920Z,3.15
2023-11-01T15:28:34.885Z,1.98
2023-11-01T15:31:02.938Z,2.40
2023-11-01T15:33:31.738Z,0.93
2023-11-01T15:35:59.835Z,4.05
2023-11-01T15:38:29.184Z,2.83
2023-11-01T15:40:57.076Z,2.10
2023-11-01T15:43:25.208Z,2.33
2023-11-01T15:45:55.342Z,2.00
2023-11-01T15:48:24.748Z,2.05
2023-11-01T15:50:52.718Z,1.95
2023-11-01T15:53:20.702Z,3.85
2023-11-01T15:55:49.985Z,2.35
2023-11-01T15:58:17.935Z,2.90
2023-11-01T16:00:45.881Z,2.45
2023-11-01T16:03:13.954Z,3.80
2023-11-01T16:05:42.409Z,3.10
2023-11-01T16:08:10.336Z,2.25
2023-11-01T16:10:38.225Z,4.72
2023-11-01T16:13:07.504Z,2.72
2023-11-01T16:15:35.411Z,2.55
2023-11-01T16:18:03.975Z,3.72
2023-11-01T16:20:32.032Z,2.17
2023-11-01T16:22:59.947Z,2.75
2023-11-01T16:25:27.848Z,3.25
2023-11-01T16:27:55.762Z,3.00
2023-11-01T16:30:25.580Z,6.15
2023-11-01T16:32:57.171Z,4.00
2023-11-01T16:35:26.502Z,3.03
2023-11-01T16:37:54.513Z,5.60
2023-11-01T16:40:22.488Z,4.35
2023-11-01T16:42:50.456Z,2.78
2023-11-01T16:45:19.977Z,2.05
2023-11-01T16:47:49.396Z,3.83
2023-11-01T16:50:17.491Z,3.30
2023-11-01T16:52:45.470Z,4.50
2023-11-01T16:55:13.484Z,2.85
2023-11-01T16:57:41.425Z,5.03
2023-11-01T17:00:10.267Z,6.03
2023-11-01T17:05:11.097Z,8.07
2023-11-01T17:07:39.003Z,8.48
2023-11-01T17:10:07.409Z,4.50
2023-11-01T17:12:35.304Z,6.05
2023-11-01T17:15:05.184Z,4.93
2023-11-01T17:17:33.568Z,6.68
2023-11-01T17:20:01.575Z,4.40
2023-11-01T17:23:01.427Z,3.70
2023-11-01T17:26:11.853Z,3.75
2023-11-01T17:28:40.252Z,3.00
2023-11-01T17:31:17.301Z,4.32
2023-11-01T17:33:46.903Z,3.80
2023-11-01T17:36:24.947Z,2.47
2023-11-01T17:38:54.494Z,2.65
2023-11-01T17:41:57.030Z,5.03
2023-11-01T17:44:27.321Z,5.20
2023-11-01T17:46:56.638Z,3.17
2023-11-01T17:49:54.366Z,2.78
2023-11-01T17:52:29.291Z,2.83
2023-11-01T17:54:59.483Z,3.05
2023-11-01T17:57:28.045Z,3.92
2023-11-01T17:59:56.940Z,3.78
2023-11-01T18:03:00.818Z,4.07
2023-11-01T18:05:37.627Z,4.88
2023-11-01T18:08:09.655Z,3.38
2023-11-01T18:10:43.435Z,3.58
2023-11-01T18:13:19.634Z,8.10
2023-11-01T18:15:48.155Z,3.75
2023-11-01T18:18:29.126Z,2.38
2023-11-01T18:20:57.623Z,4.72
2023-11-01T18:23:28.790Z,11.00
2023-11-01T18:26:25.224Z,4.80
2023-11-01T18:28:54.602Z,3.92
2023-11-01T18:31:27.223Z,3.30
2023-11-01T18:34:00.813Z,1.98
2023-11-01T18:36:29.954Z,3.67
2023-11-01T18:38:58.960Z,1.35
2023-11-01T18:41:32.152Z,3.38
2023-11-01T18:44:00.379Z,2.70
2023-11-01T18:46:33.549Z,3.00
2023-11-01T18:49:02.145Z,3.30
2023-11-01T18:51:44.105Z,3.03
2023-11-01T18:54:12.080Z,3.08
2023-11-01T18:56:42.469Z,2.97
2023-11-01T18:59:10.747Z,1.25
2023-11-01T19:01:41.987Z,3.38
2023-11-01T19:04:12.930Z,1.20
2023-11-01T19:06:42.439Z,1.75
2023-11-01T19:09:11.444Z,9.18
2023-11-01T19:11:39.371Z,3.28
2023-11-01T19:14:08.809Z,3.10
2023-11-01T19:16:36.762Z,6.05
2023-11-01T19:19:06.391Z,3.33
2023-11-01T19:21:34.331Z,4.25
2023-11-01T19:24:02.543Z,2.17
2023-11-01T19:26:30.677Z,4.25
2023-11-01T19:28:58.679Z,4.60
2023-11-01T19:31:28.320Z,4.07
2023-11-01T19:33:56.474Z,6.30
2023-11-01T19:36:25.295Z,3.92
2023-11-01T19:38:53.349Z,2.10
2023-11-01T19:41:21.442Z,3.17
2023-11-01T19:43:49.720Z,4.95
2023-11-01T19:46:17.666Z,2.10
2023-11-01T19:48:47.938Z,3.10
2023-11-01T19:51:16.239Z,2.42
2023-11-01T19:53:44.183Z,2.50
2023-11-01T19:56:12.107Z,3.42
2023-11-01T19:58:40.439Z,3.97
2023-11-01T20:01:09.280Z,5.47
2023-11-01T20:03:37.374Z,2.13
2023-11-01T20:06:08.044Z,3.20
2023-11-01T20:08:36.311Z,3.80
2023-11-01T20:11:04.320Z,6.00
2023-11-01T20:13:32.243Z,3.45
2023-11-01T20:16:00.215Z,3.38
2023-11-01T20:18:28.336Z,2.13
2023-11-01T20:20:56.321Z,3.90
2023-11-01T20:23:26.478Z,3.47
2023-11-01T20:25:54.444Z,4.13
2023-11-01T20:28:25.243Z,2.92
2023-11-01T20:30:54.432Z,4.13
2023-11-01T20:33:22.613Z,2.33
2023-11-01T20:35:50.869Z,4.50
2023-11-01T20:38:19.059Z,1.95
2023-11-01T20:40:48.364Z,2.28
2023-11-01T20:43:16.520Z,2.58
2023-11-01T20:45:46.350Z,2.85
2023-11-01T20:48:16.070Z,3.22
2023-11-01T20:50:48.288Z,2.97
2023-11-01T20:53:17.343Z,4.40
2023-11-01T20:55:45.533Z,3.08
2023-11-01T20:58:14.880Z,3.70
2023-11-01T21:00:42.853Z,2.97
2023-11-01T21:03:10.925Z,3.38
2023-11-01T21:05:38.921Z,5.45
2023-11-01T21:08:07.076Z,4.47
2023-11-01T21:10:36.038Z,3.85
2023-11-01T21:13:04.328Z,2.53
2023-11-01T21:15:33.626Z,6.35
2023-11-01T21:18:01.728Z,2.80
2023-11-01T21:20:29.726Z,2.30
2023-11-01T21:22:58.062Z,5.93
2023-11-01T21:25:28.537Z,4.68
2023-11-01T21:27:59.333Z,6.10
2023-11-01T21:30:27.275Z,3.58
2023-11-01T21:32:56.763Z,3.83
2023-11-01T21:35:34.331Z,4.25
2023-11-01T21:38:04.925Z,5.95
2023-11-01T21:40:34.884Z,3.35
2023-11-01T21:43:02.973Z,5.35
2023-11-01T21:45:50.932Z,4.35
2023-11-01T21:48:24.810Z,4.75
2023-11-01T21:51:00.937Z,4.07
2023-11-01T21:53:30.641Z,6.80
2023-11-01T21:55:59.650Z,3.17
2023-11-01T21:58:29.206Z,4.65
2023-11-01T22:00:59.654Z,2.65
2023-11-01T22:03:39.112Z,5.13
2023-11-01T22:06:17.468Z,3.03
2023-11-01T22:09:02.003Z,5.40
2023-11-01T22:11:32.369Z,2.88
2023-11-01T22:14:01.321Z,4.47
2023-11-01T22:16:30.610Z,3.45
2023-11-01T22:19:02.917Z,5.63
2023-11-01T22:21:35.182Z,6.07
2023-11-01T22:24:04.301Z,5.28
2023-11-01T22:26:33.189Z,5.47
2023-11-01T22:29:03.319Z,7.50
2023-11-01T22:31:50.318Z,4.15
2023-11-01T22:34:20.036Z,2.75
2023-11-01T22:36:50.162Z,4.15
2023-11-01T22:39:41.777Z,4.85
2023-11-01T22:42:14.612Z,3.53
2023-11-01T22:44:44.366Z,5.07
2023-11-01T22:47:12.766Z,5.35
2023-11-01T22:49:42.273Z,4.18
2023-11-01T22:52:10.292Z,5.32
2023-11-01T22:54:38.240Z,5.75
2023-11-01T22:57:06.753Z,3.30
2023-11-01T22:59:37.386Z,3.88
2023-11-01T23:02:07.408Z,3.70
2023-11-01T23:04:35.576Z,2.10
2023-11-01T23:07:05.058Z,4.47
2023-11-01T23:09:33.087Z,3.08
2023-11-01T23:12:04.280Z,4.72
2023-11-01T23:14:32.222Z,3.70
2023-11-01T23:17:00.787Z,7.25
2023-11-01T23:19:28.722Z,4.80
2023-11-01T23:21:58.227Z,5.05
2023-11-01T23:24:27.880Z,3.28
2023-11-01T23:26:56.651Z,4.60
2023-11-01T23:29:27.384Z,6.15
2023-11-01T23:31:55.682Z,4.68
2023-11-01T23:34:43.510Z,5.82
2023-11-01T23:37:23.265Z,5.32
2023-11-01T23:39:52.888Z,4.07
2023-11-01T23:42:21.575Z,4.65
2023-11-01T23:44:50.168Z,5.32
2023-11-01T23:47:26.496Z,5.32
2023-11-01T23:49:57.947Z,7.72
2023-11-01T23:52:29.613Z,5.18
2023-11-01T23:54:59.670Z,4.47
2023-11-01T23:57:31.102Z,5.32
2023-11-01T23:59:59.680Z,5.72
